createdAt,value
2023-08-13T00:03:13.654Z,98446.09
2023-08-13T00:08:15.536Z,98446.00
2023-08-13T00:13:17.711Z,98447.50
2023-08-13T00:18:19.679Z,98439.22
2023-08-13T00:23:21.836Z,98452.13
2023-08-13T00:28:23.870Z,98460.50
2023-08-13T00:33:25.818Z,98466.50
2023-08-13T00:38:27.810Z,98466.97
2023-08-13T00:43:29.946Z,98476.97
2023-08-13T00:48:33.100Z,98486.16
2023-08-13T00:53:45.047Z,98478.47
2023-08-13T00:58:47.977Z,98477.66
2023-08-13T01:03:49.955Z,98481.34
2023-08-13T01:09:32.192Z,98483.19
2023-08-13T01:14:43.443Z,98482.59
2023-08-13T01:19:45.242Z,98496.06
2023-08-13T01:24:47.333Z,98495.47
2023-08-13T01:30:00.558Z,98501.78
2023-08-13T01:35:04.213Z,98503.63
2023-08-13T01:40:07.624Z,98505.47
2023-08-13T01:45:09.764Z,98513.41
2023-08-13T01:50:11.677Z,98507.09
2023-08-13T01:55:13.543Z,98507.44
2023-08-13T02:00:15.633Z,98507.44
2023-08-13T02:05:18.678Z,98505.59
2023-08-13T02:10:20.831Z,98508.81
2023-08-13T02:15:22.878Z,98519.94
2023-08-13T02:20:24.845Z,98527.06
2023-08-13T02:25:26.852Z,98531.09
2023-08-13T02:30:28.990Z,98543.28
2023-08-13T02:35:30.905Z,98534.09
2023-08-13T02:40:34.383Z,98538.56
2023-08-13T02:45:36.468Z,98539.38
2023-08-13T02:50:38.532Z,98555.22
2023-08-13T02:55:40.381Z,98552.13
2023-08-13T03:00:42.268Z,98545.81
2023-08-13T03:05:45.491Z,98547.41
2023-08-13T03:10:47.486Z,98556.38
2023-08-13T03:15:49.600Z,98548.69
2023-08-13T03:20:51.802Z,98544.44
2023-08-13T03:25:53.795Z,98548.34
2023-08-13T03:31:03.102Z,98553.28
2023-08-13T03:36:17.794Z,98551.09
2023-08-13T03:41:20.224Z,98559.81
2023-08-13T03:46:22.256Z,98562.34
2023-08-13T03:51:24.267Z,98554.66
2023-08-13T03:56:27.345Z,98558.34
2023-08-13T04:01:29.378Z,98560.97
2023-08-13T04:06:32.292Z,98561.78
2023-08-13T04:11:34.544Z,98566.25
2023-08-13T04:16:36.534Z,98571.53
2023-08-13T04:21:38.679Z,98570.50
2023-08-13T04:26:40.703Z,98581.66
2023-08-13T04:31:44.736Z,98583.84
2023-08-13T04:36:47.545Z,98582.81
2023-08-13T04:41:49.965Z,98579.72
2023-08-13T04:46:54.620Z,98559.38
2023-08-13T04:51:56.659Z,98562.81
2023-08-13T04:56:58.793Z,98563.84
2023-08-13T05:02:01.537Z,98577.97
2023-08-13T05:07:04.005Z,98573.16
2023-08-13T05:12:07.714Z,98579.69
2023-08-13T05:17:20.740Z,98589.81
2023-08-13T05:22:23.245Z,98590.28
2023-08-13T05:27:25.397Z,98588.69
2023-08-13T05:32:27.858Z,98577.06
2023-08-13T05:37:30.632Z,98574.75
2023-08-13T05:42:32.654Z,98580.28
2023-08-13T05:47:34.643Z,98570.97
2023-08-13T05:52:36.497Z,98573.94
2023-08-13T05:57:38.593Z,98568.78
2023-08-13T06:02:40.641Z,98577.50
2023-08-13T06:07:42.637Z,98586.38
2023-08-13T06:12:44.627Z,98578.53
2023-08-13T06:17:48.224Z,98577.59
2023-08-13T06:22:50.155Z,98572.41
2023-08-13T06:27:52.054Z,98582.91
2023-08-13T06:32:53.922Z,98587.25
2023-08-13T06:38:01.914Z,98585.53
2023-08-13T06:43:04.533Z,98580.19
2023-08-13T06:48:06.719Z,98585.69
2023-08-13T06:53:08.673Z,98583.00
2023-08-13T06:58:10.531Z,98591.94
2023-08-13T07:03:12.763Z,98592.75
2023-08-13T07:08:14.716Z,98580.94
2023-08-13T07:13:17.525Z,98586.84
2023-08-13T07:18:19.498Z,98594.63
2023-08-13T07:23:21.663Z,98588.31
2023-08-13T07:28:23.934Z,98586.22
2023-08-13T07:33:26.199Z,98574.69
2023-08-13T07:38:29.396Z,98579.13
2023-08-13T07:43:32.770Z,98568.03
2023-08-13T07:48:34.705Z,98566.66
2023-08-13T07:53:36.710Z,98574.00
2023-08-13T07:58:39.618Z,98577.28
2023-08-13T08:03:42.728Z,98576.56
2023-08-13T08:08:44.747Z,98590.78
2023-08-13T08:13:46.728Z,98592.69
2023-08-13T08:18:48.639Z,98584.44
2023-08-13T08:23:51.099Z,98583.47
2023-08-13T08:28:56.210Z,98576.06
2023-08-13T08:33:58.495Z,98580.50
2023-08-13T08:39:00.442Z,98571.19
2023-08-13T08:44:02.440Z,98570.09
2023-08-13T08:49:05.347Z,98567.22
2023-08-13T08:54:07.258Z,98559.50
2023-08-13T08:59:09.477Z,98569.16
2023-08-13T09:04:11.625Z,98560.53
2023-08-13T09:09:13.745Z,98549.19
2023-08-13T09:14:16.199Z,98551.06
2023-08-13T09:19:20.343Z,98542.63
2023-08-13T09:24:32.502Z,98545.44
2023-08-13T09:29:35.847Z,98543.56
2023-08-13T09:34:38.271Z,98539.41
2023-08-13T09:39:41.761Z,98541.78
2023-08-13T09:44:45.067Z,98548.69
2023-08-13T09:49:47.844Z,98549.13
2023-08-13T09:54:53.974Z,98526.69
2023-08-13T09:59:57.304Z,98531.63
2023-08-13T10:05:00.193Z,98529.31
2023-08-13T10:10:07.737Z,98540.25
2023-08-13T10:15:11.182Z,98542.88
2023-08-13T10:20:13.647Z,98551.06
2023-08-13T10:25:33.828Z,98536.25
2023-08-13T10:30:35.934Z,98534.16
2023-08-13T10:35:40.748Z,98529.16
2023-08-13T10:41:00.811Z,98523.09
2023-08-13T10:46:07.100Z,98540.34
2023-08-13T10:51:10.834Z,98532.38
2023-08-13T10:56:18.613Z,98524.22
2023-08-13T11:01:21.819Z,98519.53
2023-08-13T11:06:26.535Z,98507.78
2023-08-13T11:11:28.613Z,98515.13
2023-08-13T11:16:30.711Z,98530.41
2023-08-13T11:21:32.862Z,98526.97
2023-08-13T11:26:35.875Z,98506.06
2023-08-13T11:31:39.600Z,98504.59
2023-08-13T11:36:41.675Z,98511.25
2023-08-13T11:41:45.038Z,98506.50
2023-08-13T11:46:57.674Z,98509.41
2023-08-13T11:52:00.696Z,98514.69
2023-08-13T11:57:04.638Z,98508.06
2023-08-13T12:02:06.659Z,98509.41
2023-08-13T12:07:10.847Z,98499.56
2023-08-13T12:12:15.773Z,98505.38
2023-08-13T12:17:17.970Z,98489.97
2023-08-13T12:22:19.790Z,98491.81
2023-08-13T12:27:24.680Z,98480.66
2023-08-13T12:32:26.647Z,98482.78
2023-08-13T12:37:28.622Z,98482.28
2023-08-13T12:42:30.840Z,98478.63
2023-08-13T12:47:36.507Z,98468.00
2023-08-13T12:52:38.507Z,98467.97
2023-08-13T12:57:40.533Z,98474.06
2023-08-13T13:02:42.607Z,98470.03
2023-08-13T13:07:44.589Z,98462.59
2023-08-13T13:12:46.512Z,98463.16
2023-08-13T13:17:48.527Z,98467.41
2023-08-13T13:22:50.554Z,98463.13
2023-08-13T13:27:52.568Z,98457.53
2023-08-13T13:32:54.535Z,98456.75
2023-08-13T13:37:58.116Z,98445.09
2023-08-13T13:43:00.088Z,98442.75
2023-08-13T13:48:02.896Z,98434.50
2023-08-13T13:53:19.359Z,98427.03
2023-08-13T13:58:21.713Z,98412.09
2023-08-13T14:03:23.651Z,98406.75
2023-08-13T14:08:25.763Z,98416.34
2023-08-13T14:13:28.302Z,98411.06
2023-08-13T14:18:30.320Z,98392.69
2023-08-13T14:23:32.241Z,98387.63
2023-08-13T14:28:34.215Z,98382.31
2023-08-13T14:33:36.312Z,98373.25
2023-08-13T14:38:39.020Z,98375.91
2023-08-13T14:43:42.168Z,98377.50
2023-08-13T14:48:44.062Z,98383.91
2023-08-13T14:53:46.077Z,98378.28
2023-08-13T14:58:48.211Z,98375.88
2023-08-13T15:03:50.280Z,98372.16
2023-08-13T15:08:55.225Z,98367.38
2023-08-13T15:13:57.275Z,98372.13
2023-08-13T15:18:59.282Z,98361.47
2023-08-13T15:24:01.778Z,98362.84
2023-08-13T15:29:04.483Z,98356.41
2023-08-13T15:34:06.761Z,98345.75
2023-08-13T15:39:10.404Z,98339.91
2023-08-13T15:44:12.563Z,98337.53
2023-08-13T15:49:14.441Z,98348.72
2023-08-13T15:54:16.285Z,98342.84
2023-08-13T15:59:18.238Z,98339.41
2023-08-13T16:04:20.560Z,98334.59
2023-08-13T16:09:23.606Z,98314.06
2023-08-13T16:14:25.713Z,98322.59
2023-08-13T16:19:27.939Z,98321.56
2023-08-13T16:24:29.968Z,98333.81
2023-08-13T16:29:32.042Z,98332.75
2023-08-13T16:34:34.280Z,98334.63
2023-08-13T16:39:36.460Z,98334.34
2023-08-13T16:44:38.361Z,98333.81
2023-08-13T16:49:40.355Z,98330.09
2023-08-13T16:54:42.808Z,98322.38
2023-08-13T16:59:45.507Z,98320.50
2023-08-13T17:04:47.454Z,98320.25
2023-08-13T17:09:49.507Z,98311.19
2023-08-13T17:14:52.227Z,98316.53
2023-08-13T17:19:55.615Z,98320.53
2023-08-13T17:24:57.561Z,98314.09
2023-08-13T17:29:59.575Z,98312.50
2023-08-13T17:35:01.502Z,98309.84
2023-08-13T17:40:05.471Z,98317.84
2023-08-13T17:45:08.257Z,98324.50
2023-08-13T17:50:10.880Z,98327.94
2023-08-13T17:55:12.921Z,98334.84
2023-08-13T18:00:15.174Z,98330.56
2023-08-13T18:05:20.168Z,98336.41
2023-08-13T18:10:22.230Z,98336.91
2023-08-13T18:15:24.680Z,98339.53
2023-08-13T18:20:26.765Z,98329.94
2023-08-13T18:25:28.950Z,98333.13
2023-08-13T18:30:31.090Z,98348.50
2023-08-13T18:35:33.472Z,98351.19
2023-08-13T18:40:35.537Z,98359.69
2023-08-13T18:45:37.520Z,98380.94
2023-08-13T18:50:39.711Z,98383.00
2023-08-13T18:55:41.925Z,98392.28
2023-08-13T19:00:44.834Z,98393.84
2023-08-13T19:05:46.766Z,98397.56
2023-08-13T19:10:48.785Z,98389.56
2023-08-13T19:15:50.622Z,98389.75
2023-08-13T19:20:52.507Z,98385.47
2023-08-13T19:25:55.222Z,98378.22
2023-08-13T19:30:57.239Z,98380.81
2023-08-13T19:35:59.298Z,98382.09
2023-08-13T19:41:01.395Z,98385.75
2023-08-13T19:46:03.435Z,98387.88
2023-08-13T19:51:05.308Z,98369.78
2023-08-13T19:56:07.179Z,98375.84
2023-08-13T20:01:09.056Z,98379.28
2023-08-13T20:06:10.886Z,98381.88
2023-08-13T20:11:12.886Z,98386.25
2023-08-13T20:16:14.920Z,98384.38
2023-08-13T20:21:16.827Z,98375.81
2023-08-13T20:26:18.695Z,98379.78
2023-08-13T20:31:20.636Z,98382.63
2023-08-13T20:36:22.628Z,98385.22
2023-08-13T20:41:24.617Z,98397.94
2023-08-13T20:46:26.432Z,98410.91
2023-08-13T20:51:28.409Z,98409.00
2023-08-13T20:56:30.986Z,98401.78
2023-08-13T21:01:34.042Z,98394.00
2023-08-13T21:06:35.951Z,98401.91
2023-08-13T21:11:38.047Z,98399.75
2023-08-13T21:16:39.834Z,98389.16
2023-08-13T21:21:41.934Z,98394.47
2023-08-13T21:26:43.785Z,98391.00
2023-08-13T21:31:45.593Z,98395.50
2023-08-13T21:36:47.491Z,98389.66
2023-08-13T21:41:49.389Z,98384.84
2023-08-13T21:46:51.272Z,98377.38
2023-08-13T21:51:53.710Z,98367.00
2023-08-13T21:56:55.763Z,98366.19
2023-08-13T22:01:57.677Z,98376.97
2023-08-13T22:07:00.533Z,98391.22
2023-08-13T22:12:02.523Z,98389.31
2023-08-13T22:17:04.670Z,98389.00
2023-08-13T22:22:06.581Z,98393.75
2023-08-13T22:27:08.919Z,98407.25
2023-08-13T22:32:10.959Z,98417.84
2023-08-13T22:37:12.816Z,98415.44
2023-08-13T22:42:15.281Z,98422.34
2023-08-13T22:47:17.413Z,98425.25
2023-08-13T22:52:19.467Z,98430.22
2023-08-13T22:57:21.778Z,98428.06
2023-08-13T23:02:23.596Z,98428.31
2023-08-13T23:07:26.052Z,98425.09
2023-08-13T23:12:27.910Z,98421.41
2023-08-13T23:17:29.896Z,98423.00
2023-08-13T23:22:31.825Z,98424.63
2023-08-13T23:27:33.717Z,98416.91
2023-08-13T23:32:35.647Z,98428.81
2023-08-13T23:37:37.593Z,98436.19
2023-08-13T23:42:39.484Z,98432.44
2023-08-13T23:47:41.283Z,98428.66
2023-08-13T23:52:43.148Z,98437.34
2023-08-13T23:57:45.029Z,98438.06
